Time;durP1;ratioP1;P1;durP2;ratioP2;P2;SDS_P1;SDS_P2;PMS_P1;PMS_P2;Temp;Humidity;BMP_temperature;BMP_pressure;BME280_temperature;BME280_humidity;BME280_pressure;Samples;Min_cycle;Max_cycle;Signal;HPM_P1;HPM_P2
2024/04/21 00:00:55;;;;;;;;;;;;;;;20.28;45.06;101502.09;2220802;26;5871;-70
2024/04/21 00:01:57;;;;;;;;;;;;;;;20.26;44.67;101502.72;2220489;26;2045;-70
2024/04/21 00:02:58;;;;;;;;;;;;;;;20.27;45.00;101506.34;2219317;26;2237;-71
2024/04/21 00:04:00;;;;;;;;;;;;;;;20.27;45.24;101506.34;2213921;26;2118;-71
2024/04/21 00:05:02;;;;;;;;;;;;;;;20.26;44.60;101502.72;2220027;26;2142;-70
2024/04/21 00:06:03;;;;;;;;;;;;;;;20.27;44.75;101503.47;2217125;26;2268;-70
2024/04/21 00:07:05;;;;;;;;;;;;;;;20.26;45.15;101504.88;2213014;26;2174;-70
2024/04/21 00:08:06;;;;;;;;;;;;;;;20.25;44.95;101504.13;2217140;26;2227;-70
2024/04/21 00:09:07;;;;;;;;;;;;;;;20.26;44.70;101505.59;2219937;26;2175;-70
2024/04/21 00:10:09;;;;;;;;;;;;;;;20.25;44.95;101509.88;2219189;26;2124;-70
2024/04/21 00:11:11;;;;;;;;;;;;;;;20.25;45.15;101503.38;2216063;26;2130;-70
2024/04/21 00:12:12;;;;;;;;;;;;;;;20.25;45.12;101506.25;2216452;26;2355;-70
2024/04/21 00:13:13;;;;;;;;;;;;;;;20.25;44.68;101509.13;2211561;26;2244;-71
2024/04/21 00:14:15;;;;;;;;;;;;;;;20.24;44.50;101504.75;2216951;26;2225;-70
2024/04/21 00:15:17;;;;;;;;;;;;;;;20.23;45.18;101509.00;2215248;26;2288;-70
2024/04/21 00:16:18;;;;;;;;;;;;;;;20.24;44.82;101511.25;2216788;26;2362;-70
2024/04/21 00:17:20;;;;;;;;;;;;;;;20.24;44.89;101507.63;2215373;26;2072;-70
2024/04/21 00:18:21;;;;;;;;;;;;;;;20.23;44.91;101506.13;2217931;26;2131;-70
2024/04/21 00:19:23;;;;;;;;;;;;;;;20.23;44.92;101511.88;2213596;26;2322;-70
2024/04/21 00:20:25;;;;;;;;;;;;;;;20.22;45.29;101504.63;2217066;26;2306;-70
2024/04/21 00:21:28;;;;;;;;;;;;;;;20.21;44.50;101503.88;2220202;26;2147;-70
2024/04/21 00:22:29;;;;;;;;;;;;;;;20.21;44.75;101497.41;2220069;26;2203;-70
2024/04/21 00:23:36;;;;;;;;;;;;;;;20.22;44.82;101513.25;2213269;26;2236;-70
2024/04/21 00:24:38;;;;;;;;;;;;;;;20.21;45.22;101506.03;2211998;26;2492;-70
2024/04/21 00:25:39;;;;;;;;;;;;;;;20.20;44.71;101508.16;2219642;26;2216;-70
2024/04/21 00:26:41;;;;;;;;;;;;;;;20.20;nan;101505.28;2220515;26;2337;-70
2024/04/21 00:27:43;;;;;;;;;;;;;;;20.18;44.84;101499.41;2219808;26;2164;-70
2024/04/21 00:28:47;;;;;;;;;;;;;;;20.18;44.53;101505.16;2213917;26;2350;-70
2024/04/21 00:29:49;;;;;;;;;;;;;;;20.19;45.18;101505.91;2215281;26;2238;-70
2024/04/21 00:30:50;;;;;;;;;;;;;;;20.19;45.01;101500.91;2210202;26;5792;-70
2024/04/21 00:31:52;;;;;;;;;;;;;;;20.18;44.54;101504.38;2216174;26;2162;-70
2024/04/21 00:32:53;;;;;;;;;;;;;;;20.19;44.53;101505.91;2215838;26;2309;-70
2024/04/21 00:33:55;;;;;;;;;;;;;;;20.18;44.45;101510.13;2212977;26;2186;-70
2024/04/21 00:34:57;;;;;;;;;;;;;;;20.18;44.65;101510.13;2216033;26;2275;-70
2024/04/21 00:35:58;;;;;;;;;;;;;;;20.17;44.57;101505.78;2214524;26;2066;-70
2024/04/21 00:37:00;;;;;;;;;;;;;;;20.16;44.73;101505.03;2213332;26;2366;-70
2024/04/21 00:38:01;;;;;;;;;;;;;;;20.18;44.46;101510.13;2216157;26;2139;-70
2024/04/21 00:39:03;;;;;;;;;;;;;;;20.17;44.35;101514.41;2221177;26;2206;-70
2024/04/21 00:40:04;;;;;;;;;;;;;;;20.16;44.48;101510.03;2215644;26;2514;-71
2024/04/21 00:41:06;;;;;;;;;;;;;;;20.15;44.47;101506.41;2217867;26;2255;-70
2024/04/21 00:42:07;;;;;;;;;;;;;;;20.15;44.95;101505.66;2215007;26;2097;-70
2024/04/21 00:43:10;;;;;;;;;;;;;;;20.16;44.71;101510.03;2217221;26;2245;-70
2024/04/21 00:44:11;;;;;;;;;;;;;;;20.15;44.47;101509.28;2217986;26;2171;-70
2024/04/21 00:45:13;;;;;;;;;;;;;;;20.15;44.68;101502.78;2217171;26;2403;-70
2024/04/21 00:46:29;;;;;;;;;;;;;;;20.15;44.50;101511.41;2213733;26;2282;-70
2024/04/21 00:47:31;;;;;;;;;;;;;;;20.14;44.55;101502.03;2222028;26;2086;-70
2024/04/21 00:48:33;;;;;;;;;;;;;;;20.15;44.65;101517.91;2221290;26;2314;-69
2024/04/21 00:49:34;;;;;;;;;;;;;;;20.14;44.70;101510.66;2215088;26;2459;-70
2024/04/21 00:50:38;;;;;;;;;;;;;;;20.14;44.43;101513.53;2222361;26;1991;-70
2024/04/21 00:51:39;;;;;;;;;;;;;;;20.14;44.40;101516.41;2214172;26;2301;-70
2024/04/21 00:52:41;;;;;;;;;;;;;;;20.14;44.67;101515.69;2214422;26;2348;-70
2024/04/21 00:53:42;;;;;;;;;;;;;;;20.13;44.64;101520.66;2217812;26;2105;-70
2024/04/21 00:54:44;;;;;;;;;;;;;;;20.14;44.30;101518.56;2217698;26;2106;-70
2024/04/21 00:55:46;;;;;;;;;;;;;;;20.13;44.27;101514.91;2212042;26;2143;-70
2024/04/21 00:56:48;;;;;;;;;;;;;;;20.13;44.42;101508.41;2214041;26;2110;-70
2024/04/21 00:57:50;;;;;;;;;;;;;;;20.14;44.56;101515.69;2219254;26;2122;-70
2024/04/21 00:58:52;;;;;;;;;;;;;;;20.13;44.20;101514.16;2218494;26;2256;-70
2024/04/21 00:59:54;;;;;;;;;;;;;;;20.13;44.76;101519.91;2214263;26;2365;-70
2024/04/21 01:00:56;;;;;;;;;;;;;;;20.12;44.23;101512.69;2217713;26;5895;-70
2024/04/21 01:01:58;;;;;;;;;;;;;;;20.14;44.99;101518.56;2217989;26;2313;-70
2024/04/21 01:02:59;;;;;;;;;;;;;;;20.13;44.61;101519.91;2217694;26;2268;-70
2024/04/21 01:04:01;;;;;;;;;;;;;;;20.12;44.91;101513.44;2216461;26;2106;-71
2024/04/21 01:05:03;;;;;;;;;;;;;;;20.12;44.99;101519.19;2217713;26;2127;-70
2024/04/21 01:06:05;;;;;;;;;;;;;;;20.12;44.65;101518.44;2215057;26;2386;-70
2024/04/21 01:07:06;;;;;;;;;;;;;;;20.11;44.23;101516.91;2217774;26;2107;-70
2024/04/21 01:08:08;;;;;;;;;;;;;;;20.11;44.50;101517.66;2221940;26;2114;-70
2024/04/21 01:09:10;;;;;;;;;;;;;;;20.12;44.50;101524.19;2214682;26;2355;-70
2024/04/21 01:10:11;;;;;;;;;;;;;;;20.09;44.64;101521.19;2218272;26;2336;-70
2024/04/21 01:11:17;;;;;;;;;;;;;;;20.10;44.71;101516.19;2217461;26;2242;-70
2024/04/21 01:12:18;;;;;;;;;;;;;;;20.09;44.42;101521.19;2216465;26;2214;-71
2024/04/21 01:13:20;;;;;;;;;;;;;;;20.09;44.59;101517.56;2213546;26;2271;-70
2024/04/21 01:14:21;;;;;;;;;;;;;;;20.09;44.96;101521.19;2217897;26;2307;-70
2024/04/21 01:15:23;;;;;;;;;;;;;;;20.09;44.78;101524.06;2213643;26;2232;-70
2024/04/21 01:16:24;;;;;;;;;;;;;;;20.10;44.81;101519.06;2211395;26;2276;-70
2024/04/21 01:17:26;;;;;;;;;;;;;;;20.10;44.80;101524.81;2217189;26;2096;-70
2024/04/21 01:18:27;;;;;;;;;;;;;;;20.12;44.53;101518.44;2211252;26;2170;-70
2024/04/21 01:19:29;;;;;;;;;;;;;;;20.11;44.71;101516.91;2219969;26;2208;-70
2024/04/21 01:20:33;;;;;;;;;;;;;;;20.12;44.12;101524.19;2214514;26;2298;-71
2024/04/21 01:21:34;;;;;;;;;;;;;;;20.13;44.50;101522.78;2220388;26;2155;-70
2024/04/21 01:22:45;;;;;;;;;;;;;;;20.13;44.88;101519.91;2216385;26;2191;-70
2024/04/21 01:23:47;;;;;;;;;;;;;;;20.13;44.69;101520.66;2212964;26;2191;-70
2024/04/21 01:24:48;;;;;;;;;;;;;;;20.15;44.44;101522.91;2215466;26;2034;-70
2024/04/21 01:25:50;;;;;;;;;;;;;;;20.15;44.65;101517.91;2217647;26;2255;-70
2024/04/21 01:26:51;;;;;;;;;;;;;;;20.16;44.18;101524.41;2217566;26;2377;-71
2024/04/21 01:27:55;;;;;;;;;;;;;;;20.16;44.50;101525.16;2217034;26;2173;-70
2024/04/21 01:28:56;;;;;;;;;;;;;;;20.17;44.36;101525.91;2217814;26;2284;-71
2024/04/21 01:29:58;;;;;;;;;;;;;;;20.19;44.31;101528.91;2217019;26;2317;-70
2024/04/21 01:30:59;;;;;;;;;;;;;;;20.18;44.16;101524.50;2216940;26;6545;-70
2024/04/21 01:32:01;;;;;;;;;;;;;;;20.19;44.22;101523.16;2219622;26;2145;-70
2024/04/21 01:33:02;;;;;;;;;;;;;;;20.19;44.39;101523.16;2215077;26;2226;-70
2024/04/21 01:34:04;;;;;;;;;;;;;;;20.21;44.49;101531.91;2220603;26;2302;-70
2024/04/21 01:35:05;;;;;;;;;;;;;;;20.21;44.19;101526.16;2216174;26;2264;-71
2024/04/21 01:36:07;;;;;;;;;;;;;;;20.23;44.50;101523.41;2216845;26;2433;-71
2024/04/21 01:37:08;;;;;;;;;;;;;;;20.22;45.09;101525.50;2218560;26;2210;-70
2024/04/21 01:38:10;;;;;;;;;;;;;;;20.22;44.81;101527.63;2219239;26;2263;-70
2024/04/21 01:39:11;;;;;;;;;;;;;;;20.22;45.07;101533.38;2217057;26;2261;-70
2024/04/21 01:40:13;;;;;;;;;;;;;;;20.23;44.81;101529.88;2215983;26;2252;-70
2024/04/21 01:41:14;;;;;;;;;;;;;;;20.24;44.54;101530.63;2217016;26;2138;-70
2024/04/21 01:42:16;;;;;;;;;;;;;;;20.23;44.77;101529.88;2222166;26;2101;-70
2024/04/21 01:43:17;;;;;;;;;;;;;;;20.23;44.75;101529.16;2218353;26;2349;-70
2024/04/21 01:44:19;;;;;;;;;;;;;;;20.23;44.57;101523.41;2212990;26;2179;-70
2024/04/21 01:45:21;;;;;;;;;;;;;;;20.23;44.94;101529.16;2214150;26;2237;-70
2024/04/21 01:46:22;;;;;;;;;;;;;;;20.23;45.04;101529.16;2215719;26;2139;-70
2024/04/21 01:47:24;;;;;;;;;;;;;;;20.22;45.24;101528.38;2216915;26;2214;-70
2024/04/21 01:48:25;;;;;;;;;;;;;;;20.21;45.14;101529.75;2220021;26;2167;-70
2024/04/21 01:49:28;;;;;;;;;;;;;;;20.22;45.10;101528.38;2216399;26;2127;-70
2024/04/21 01:50:30;;;;;;;;;;;;;;;20.22;44.85;101527.63;2211686;26;2276;-70
2024/04/21 01:51:31;;;;;;;;;;;;;;;20.22;45.10;101527.63;2219527;26;2355;-70
2024/04/21 01:52:33;;;;;;;;;;;;;;;20.22;45.18;101530.50;2213351;26;2183;-70
2024/04/21 01:53:35;;;;;;;;;;;;;;;20.22;45.06;101530.50;2212709;26;2235;-70
2024/04/21 01:54:36;;;;;;;;;;;;;;;20.21;45.13;101529.75;2216795;26;2216;-71
2024/04/21 01:55:38;;;;;;;;;;;;;;;20.22;45.21;101536.25;2218729;26;2342;-70
2024/04/21 01:56:39;;;;;;;;;;;;;;;20.22;44.82;101533.38;2215842;26;2291;-70
2024/04/21 01:57:41;;;;;;;;;;;;;;;20.21;45.07;101531.91;2217738;26;2083;-70
2024/04/21 01:58:42;;;;;;;;;;;;;;;20.21;45.10;101532.66;2220482;26;2290;-70
2024/04/21 01:59:44;;;;;;;;;;;;;;;20.21;45.00;101535.53;2217317;26;2278;-70
2024/04/21 02:00:45;;;;;;;;;;;;;;;20.20;45.07;101536.13;2212609;26;5862;-70
2024/04/21 02:01:47;;;;;;;;;;;;;;;20.21;45.21;101537.66;2215352;26;2279;-71
2024/04/21 02:02:48;;;;;;;;;;;;;;;20.20;45.26;101536.13;2220147;26;2330;-71
2024/04/21 02:03:50;;;;;;;;;;;;;;;20.20;45.27;101536.13;2217058;26;2219;-70
2024/04/21 02:04:51;;;;;;;;;;;;;;;20.19;45.06;101534.66;2217158;26;2294;-70
2024/04/21 02:05:53;;;;;;;;;;;;;;;20.19;45.20;101534.66;2215670;26;2368;-70
2024/04/21 02:06:54;;;;;;;;;;;;;;;20.19;45.05;101541.16;2218345;26;2268;-70
2024/04/21 02:07:56;;;;;;;;;;;;;;;20.19;44.73;101531.78;2217424;26;2272;-70
2024/04/21 02:08:57;;;;;;;;;;;;;;;20.18;45.33;101533.91;2214518;26;2162;-70
2024/04/21 02:09:59;;;;;;;;;;;;;;;20.18;44.95;101538.91;2215385;26;2455;-70
2024/04/21 02:11:00;;;;;;;;;;;;;;;20.18;44.92;101533.16;2214523;26;2097;-70
2024/04/21 02:12:02;;;;;;;;;;;;;;;20.17;44.97;101538.16;2219171;26;2280;-70
2024/04/21 02:13:03;;;;;;;;;;;;;;;20.17;45.10;101540.28;2217395;26;2244;-70
2024/04/21 02:14:05;;;;;;;;;;;;;;;20.16;45.14;101530.16;2211571;26;2192;-70
2024/04/21 02:15:06;;;;;;;;;;;;;;;20.17;45.04;101537.41;2218781;26;2483;-70
2024/04/21 02:16:08;;;;;;;;;;;;;;;20.15;44.92;101535.16;2215705;26;2162;-70
2024/04/21 02:17:09;;;;;;;;;;;;;;;20.15;45.30;101535.16;2215729;26;2515;-70
2024/04/21 02:18:11;;;;;;;;;;;;;;;20.15;45.00;101546.66;2216849;26;2438;-70
2024/04/21 02:19:12;;;;;;;;;;;;;;;20.15;45.03;101543.78;2219515;26;2227;-70
2024/04/21 02:20:14;;;;;;;;;;;;;;;20.15;44.79;101543.03;2218330;26;2313;-70
2024/04/21 02:21:15;;;;;;;;;;;;;;;20.15;44.76;101545.91;2213379;26;2259;-70
2024/04/21 02:22:17;;;;;;;;;;;;;;;20.15;44.99;101545.91;2219335;26;2433;-70
2024/04/21 02:23:18;;;;;;;;;;;;;;;20.14;45.30;101538.69;2219937;26;2086;-71
2024/04/21 02:24:20;;;;;;;;;;;;;;;20.14;45.03;101544.44;2218301;26;2156;-70
2024/04/21 02:25:22;;;;;;;;;;;;;;;20.14;45.33;101538.69;2212351;26;2301;-70
2024/04/21 02:26:23;;;;;;;;;;;;;;;20.13;44.99;101542.91;2220515;26;2164;-70
2024/04/21 02:27:25;;;;;;;;;;;;;;;20.13;44.85;101542.91;2217246;26;2278;-70
2024/04/21 02:28:27;;;;;;;;;;;;;;;20.12;45.36;101538.56;2219631;26;2114;-71
2024/04/21 02:29:28;;;;;;;;;;;;;;;20.12;44.79;101532.81;2219516;26;2268;-70
2024/04/21 02:30:30;;;;;;;;;;;;;;;20.11;44.78;101537.06;2215694;26;5882;-70
2024/04/21 02:31:31;;;;;;;;;;;;;;;20.12;45.37;101539.31;2219253;26;2109;-72
2024/04/21 02:32:33;;;;;;;;;;;;;;;20.12;45.06;101536.44;2218353;26;2153;-70
2024/04/21 02:33:34;;;;;;;;;;;;;;;20.12;44.73;101533.56;2218174;26;2363;-70
2024/04/21 02:34:36;;;;;;;;;;;;;;;20.12;44.65;101541.44;2216659;26;2239;-70
2024/04/21 02:35:37;;;;;;;;;;;;;;;20.13;44.96;101542.91;2218691;26;2367;-70
2024/04/21 02:36:39;;;;;;;;;;;;;;;20.12;44.96;101542.19;2210891;26;2109;-70
2024/04/21 02:37:40;;;;;;;;;;;;;;;20.13;44.81;101548.66;2218200;26;2236;-70
2024/04/21 02:38:42;;;;;;;;;;;;;;;20.14;45.09;101538.69;2210546;26;2399;-70
2024/04/21 02:39:43;;;;;;;;;;;;;;;20.14;44.95;101544.44;2220059;26;2171;-70
2024/04/21 02:40:45;;;;;;;;;;;;;;;20.15;44.50;101545.91;2220123;26;2107;-70
2024/04/21 02:41:46;;;;;;;;;;;;;;;20.15;44.87;101540.16;2217393;26;2358;-70
2024/04/21 02:42:48;;;;;;;;;;;;;;;20.17;44.30;101537.41;2218226;26;2228;-70
2024/04/21 02:43:49;;;;;;;;;;;;;;;20.16;44.65;101536.66;2216048;26;2271;-70
2024/04/21 02:44:51;;;;;;;;;;;;;;;20.17;44.85;101548.91;2219980;26;2267;-70
2024/04/21 02:45:52;;;;;;;;;;;;;;;20.18;44.73;101541.78;2212561;26;2306;-70
2024/04/21 02:46:54;;;;;;;;;;;;;;;20.18;44.36;101538.91;2214765;26;2310;-71
2024/04/21 02:47:55;;;;;;;;;;;;;;;20.18;44.79;101544.66;2213696;26;2111;-71
2024/04/21 02:48:57;;;;;;;;;;;;;;;20.19;45.17;101546.91;2209979;26;2297;-70
2024/04/21 02:49:58;;;;;;;;;;;;;;;20.20;45.13;101547.66;2218131;26;2386;-70
2024/04/21 02:51:00;;;;;;;;;;;;;;;20.21;45.11;101543.41;2220878;26;2191;-70
2024/04/21 02:52:01;;;;;;;;;;;;;;;20.21;44.90;101543.41;2216015;26;2159;-71
2024/04/21 02:53:03;;;;;;;;;;;;;;;20.21;44.74;101552.03;2219428;26;2252;-70
2024/04/21 02:54:04;;;;;;;;;;;;;;;20.21;44.97;101549.16;2216638;26;2248;-70
2024/04/21 02:55:06;;;;;;;;;;;;;;;20.21;45.15;101543.41;2215103;26;2174;-69
2024/04/21 02:56:08;;;;;;;;;;;;;;;20.21;44.92;101549.16;2219932;26;2302;-70
2024/04/21 02:57:09;;;;;;;;;;;;;;;20.22;45.00;101544.88;2218386;26;2172;-70
2024/04/21 02:58:10;;;;;;;;;;;;;;;20.22;44.79;101544.88;2219958;26;2227;-70
2024/04/21 02:59:12;;;;;;;;;;;;;;;20.23;45.37;101546.41;2220570;26;2174;-70
2024/04/21 03:00:13;;;;;;;;;;;;;;;20.23;44.73;101555.03;2217145;26;6207;-71
2024/04/21 03:01:15;;;;;;;;;;;;;;;20.23;45.18;101552.91;2211435;26;2626;-70
2024/04/21 03:02:16;;;;;;;;;;;;;;;20.24;45.18;101547.88;2213958;26;2157;-70
2024/04/21 03:03:18;;;;;;;;;;;;;;;20.25;44.64;101552.28;2220413;26;2127;-70
2024/04/21 03:04:19;;;;;;;;;;;;;;;20.25;44.88;101553.00;2215007;26;2241;-70
2024/04/21 03:05:21;;;;;;;;;;;;;;;20.25;45.20;101553.00;2211914;26;2248;-70
2024/04/21 03:06:22;;;;;;;;;;;;;;;20.25;45.44;101555.16;2211614;26;2241;-70
2024/04/21 03:07:24;;;;;;;;;;;;;;;20.26;44.96;101556.63;2210450;26;2154;-69
2024/04/21 03:08:25;;;;;;;;;;;;;;;20.27;44.96;101552.38;2209367;26;2302;-70
2024/04/21 03:09:27;;;;;;;;;;;;;;;20.26;44.93;101557.38;2210761;26;2153;-71
2024/04/21 03:10:28;;;;;;;;;;;;;;;20.26;45.08;101563.13;2216287;26;2194;-70
2024/04/21 03:11:30;;;;;;;;;;;;;;;20.27;45.17;101564.63;2227160;26;2156;-70
2024/04/21 03:12:32;;;;;;;;;;;;;;;20.26;45.42;101550.88;2233321;26;2260;-70
2024/04/21 03:13:33;;;;;;;;;;;;;;;20.26;45.16;101562.38;2217884;26;2168;-70
2024/04/21 03:14:35;;;;;;;;;;;;;;;20.26;45.11;101559.50;2208752;26;2420;-70
2024/04/21 03:15:37;;;;;;;;;;;;;;;20.25;44.94;101555.88;2215517;26;2688;-70
2024/04/21 03:16:38;;;;;;;;;;;;;;;20.26;44.95;101556.63;2213243;26;2270;-70
2024/04/21 03:17:40;;;;;;;;;;;;;;;20.26;45.33;101556.63;2232956;26;2382;-70
2024/04/21 03:18:41;;;;;;;;;;;;;;;20.26;45.17;101556.63;2229839;26;2222;-71
2024/04/21 03:19:46;;;;;;;;;;;;;;;20.26;44.76;101559.50;2220355;26;2542;-70
2024/04/21 03:20:58;;;;;;;;;;;;;;;20.25;45.10;101553.00;2212220;26;2364;-70
2024/04/21 03:21:59;;;;;;;;;;;;;;;20.25;44.97;101555.88;2212464;26;2160;-70
2024/04/21 03:23:01;;;;;;;;;;;;;;;20.25;44.92;101558.78;2216854;26;2316;-71
2024/04/21 03:24:02;;;;;;;;;;;;;;;20.24;45.40;101560.13;2213871;26;2229;-70
2024/04/21 03:25:04;;;;;;;;;;;;;;;20.25;45.45;101555.16;2217438;26;2170;-70
2024/04/21 03:26:05;;;;;;;;;;;;;;;20.25;45.29;101555.16;2212425;26;2369;-70
2024/04/21 03:27:07;;;;;;;;;;;;;;;20.25;45.26;101563.78;2214586;26;2320;-71
2024/04/21 03:28:09;;;;;;;;;;;;;;;20.26;45.34;101562.38;2214480;26;2280;-70
2024/04/21 03:29:10;;;;;;;;;;;;;;;20.26;45.29;101553.75;2217193;26;2200;-70
2024/04/21 03:30:12;;;;;;;;;;;;;;;20.25;45.33;101555.88;2213897;26;5966;-70
2024/04/21 03:31:13;;;;;;;;;;;;;;;20.28;45.39;101559.63;2217803;26;2223;-70
2024/04/21 03:32:15;;;;;;;;;;;;;;;20.27;45.00;101555.25;2220274;26;2143;-70
2024/04/21 03:33:16;;;;;;;;;;;;;;;20.27;45.13;101558.13;2221498;26;2163;-70
2024/04/21 03:34:18;;;;;;;;;;;;;;;20.27;45.17;101558.13;2217174;26;2240;-70
2024/04/21 03:35:19;;;;;;;;;;;;;;;20.28;45.40;101559.63;2215662;26;2116;-70
2024/04/21 03:36:21;;;;;;;;;;;;;;;20.28;44.80;101559.63;2215860;26;2244;-70
2024/04/21 03:37:22;;;;;;;;;;;;;;;20.29;44.74;101566.88;2218825;26;2330;-71
2024/04/21 03:38:24;;;;;;;;;;;;;;;20.29;45.00;101561.13;2210125;26;2392;-70
2024/04/21 03:39:25;;;;;;;;;;;;;;;20.28;45.15;101569.00;2219288;26;2153;-71
2024/04/21 03:40:27;;;;;;;;;;;;;;;20.28;44.80;101568.25;2211087;26;2243;-70
2024/04/21 03:41:28;;;;;;;;;;;;;;;20.29;44.70;101564.75;2219970;26;2310;-70
2024/04/21 03:42:30;;;;;;;;;;;;;;;20.26;45.46;101557.38;2217306;26;2140;-70
2024/04/21 03:43:31;;;;;;;;;;;;;;;20.29;45.62;101561.13;2220361;26;2140;-69
2024/04/21 03:44:33;;;;;;;;;;;;;;;20.30;45.39;101563.38;2216798;26;2279;-70
2024/04/21 03:45:35;;;;;;;;;;;;;;;20.31;45.12;101569.88;2214985;26;2297;-71
2024/04/21 03:46:36;;;;;;;;;;;;;;;20.30;45.50;101569.13;2214090;26;2044;-70
2024/04/21 03:47:38;;;;;;;;;;;;;;;20.32;45.36;101565.63;2214211;26;2356;-72
2024/04/21 03:48:40;;;;;;;;;;;;;;;20.33;45.48;101567.09;2216414;26;2237;-70
2024/04/21 03:49:41;;;;;;;;;;;;;;;20.32;45.25;101570.59;2214321;26;2178;-70
2024/04/21 03:50:42;;;;;;;;;;;;;;;20.33;45.20;101575.00;2219461;26;2129;-70
2024/04/21 03:51:44;;;;;;;;;;;;;;;20.32;45.38;101571.38;2220429;26;2265;-70
2024/04/21 03:52:45;;;;;;;;;;;;;;;20.33;45.12;101572.84;2217750;26;2132;-70
2024/04/21 03:53:47;;;;;;;;;;;;;;;20.32;45.07;101574.25;2216504;26;2375;-70
2024/04/21 03:54:50;;;;;;;;;;;;;;;20.34;45.27;101573.59;2217054;26;2492;-70
2024/04/21 03:55:52;;;;;;;;;;;;;;;20.33;44.95;101572.84;2216550;26;2267;-70
2024/04/21 03:56:53;;;;;;;;;;;;;;;20.33;45.44;101581.50;2216383;26;2109;-70
2024/04/21 03:57:54;;;;;;;;;;;;;;;20.33;45.18;101578.59;2216300;26;2307;-70
2024/04/21 03:58:56;;;;;;;;;;;;;;;20.33;45.52;101578.59;2216219;26;2546;-70
2024/04/21 03:59:58;;;;;;;;;;;;;;;20.34;45.22;101585.88;2217738;26;2236;-70
2024/04/21 04:00:59;;;;;;;;;;;;;;;20.34;45.31;101583.00;2209666;26;5726;-70
2024/04/21 04:02:01;;;;;;;;;;;;;;;20.34;44.98;101585.88;2216006;26;2140;-70
2024/04/21 04:03:03;;;;;;;;;;;;;;;20.34;45.14;101596.63;2217668;26;2204;-70
2024/04/21 04:04:05;;;;;;;;;;;;;;;20.33;45.25;101580.75;2214164;26;2320;-70
2024/04/21 04:05:06;;;;;;;;;;;;;;;20.32;45.43;101577.13;2213328;26;2257;-70
2024/04/21 04:06:11;;;;;;;;;;;;;;;20.32;45.45;101585.75;2209821;26;2237;-70
2024/04/21 04:07:12;;;;;;;;;;;;;;;20.33;44.73;101595.13;2217427;26;2240;-70
2024/04/21 04:08:14;;;;;;;;;;;;;;;20.32;45.55;101588.63;2217923;26;2278;-70
2024/04/21 04:09:15;;;;;;;;;;;;;;;20.31;45.48;101601.50;2216986;26;2289;-70
2024/04/21 04:10:16;;;;;;;;;;;;;;;20.33;45.00;101595.13;2216216;26;2166;-70
2024/04/21 04:11:18;;;;;;;;;;;;;;;20.32;45.24;101600.13;2212661;26;2306;-70
2024/04/21 04:12:19;;;;;;;;;;;;;;;20.31;45.32;101598.63;2211404;26;2130;-70
2024/04/21 04:13:21;;;;;;;;;;;;;;;20.32;45.27;101599.38;2215908;26;2305;-60
2024/04/21 04:14:22;;;;;;;;;;;;;;;20.32;44.67;101608.00;2216022;26;2523;-63
2024/04/21 04:15:24;;;;;;;;;;;;;;;20.32;45.33;101605.88;2215921;26;2467;-70
2024/04/21 04:16:25;;;;;;;;;;;;;;;20.32;44.84;101608.78;2216716;26;2010;-67
2024/04/21 04:17:27;;;;;;;;;;;;;;;20.33;44.79;101604.50;2212794;26;2102;-70
2024/04/21 04:18:29;;;;;;;;;;;;;;;20.33;45.06;101613.13;2214078;26;2260;-70
2024/04/21 04:19:30;;;;;;;;;;;;;;;20.32;45.28;101608.78;2219524;26;2112;-70
2024/04/21 04:20:33;;;;;;;;;;;;;;;20.33;45.08;101613.13;2215305;26;2182;-70
2024/04/21 04:21:38;;;;;;;;;;;;;;;20.34;45.18;101608.13;2221491;26;2124;-71
2024/04/21 04:22:39;;;;;;;;;;;;;;;20.32;45.30;101611.66;2221051;26;2237;-70
2024/04/21 04:23:41;;;;;;;;;;;;;;;20.33;45.50;101613.13;2219888;26;2380;-70
2024/04/21 04:24:42;;;;;;;;;;;;;;;20.33;44.91;101616.00;2218309;26;2378;-71
2024/04/21 04:25:44;;;;;;;;;;;;;;;20.33;45.38;101613.13;2219651;26;2117;-70
2024/04/21 04:26:45;;;;;;;;;;;;;;;20.34;45.10;101617.50;2220845;26;2166;-70
2024/04/21 04:27:47;;;;;;;;;;;;;;;20.34;45.10;101608.13;2216619;26;2339;-70
2024/04/21 04:28:48;;;;;;;;;;;;;;;20.34;45.18;101619.63;2215579;26;2212;-70
2024/04/21 04:29:50;;;;;;;;;;;;;;;20.36;45.52;101623.38;2220910;26;2025;-70
2024/04/21 04:30:51;;;;;;;;;;;;;;;20.35;45.23;101621.88;2214861;26;5766;-70
2024/04/21 04:31:53;;;;;;;;;;;;;;;20.36;44.97;101617.59;2221927;26;2220;-70
2024/04/21 04:32:55;;;;;;;;;;;;;;;20.36;44.95;101620.50;2220274;26;2500;-70
2024/04/21 04:33:56;;;;;;;;;;;;;;;20.36;45.14;101628.38;2217978;26;2240;-71
2024/04/21 04:34:58;;;;;;;;;;;;;;;20.37;45.26;101624.88;2212458;26;2292;-70
2024/04/21 04:35:59;;;;;;;;;;;;;;;20.37;44.76;101630.63;2220647;26;2144;-71
2024/04/21 04:37:01;;;;;;;;;;;;;;;20.36;45.23;101623.38;2221572;26;2250;-70
2024/04/21 04:38:02;;;;;;;;;;;;;;;20.37;45.51;101633.50;2220753;26;2166;-70
2024/04/21 04:39:04;;;;;;;;;;;;;;;20.38;44.83;101631.38;2218445;26;2443;-69
2024/04/21 04:40:06;;;;;;;;;;;;;;;20.38;45.31;101635.00;2214369;26;2253;-70
2024/04/21 04:41:08;;;;;;;;;;;;;;;20.38;45.42;101634.25;2218882;26;2168;-70
2024/04/21 04:42:10;;;;;;;;;;;;;;;20.38;45.64;101629.25;2219744;26;2183;-70
2024/04/21 04:43:11;;;;;;;;;;;;;;;20.37;45.30;101636.38;2216195;26;2129;-69
2024/04/21 04:44:13;;;;;;;;;;;;;;;20.38;44.98;101637.13;2221524;26;2259;-70
2024/04/21 04:45:15;;;;;;;;;;;;;;;20.37;44.89;101642.13;2215121;26;2350;-70
2024/04/21 04:46:16;;;;;;;;;;;;;;;20.36;45.26;101643.50;2220262;26;2099;-69
2024/04/21 04:47:18;;;;;;;;;;;;;;;20.36;45.09;101637.00;2220246;26;2052;-70
2024/04/21 04:48:20;;;;;;;;;;;;;;;20.37;45.08;101642.13;2219277;26;1981;-69
2024/04/21 04:49:21;;;;;;;;;;;;;;;20.35;45.16;101644.88;2220927;26;2300;-70
2024/04/21 04:50:23;;;;;;;;;;;;;;;20.35;44.98;101639.13;2213854;26;2244;-70
2024/04/21 04:51:24;;;;;;;;;;;;;;;20.36;45.12;101651.38;2219676;26;2343;-70
2024/04/21 04:52:26;;;;;;;;;;;;;;;20.36;45.61;101645.63;2217973;26;2182;-69
2024/04/21 04:53:27;;;;;;;;;;;;;;;20.35;45.41;101647.78;2221629;26;2044;-70
2024/04/21 04:54:29;;;;;;;;;;;;;;;20.35;45.57;101650.66;2216016;26;2249;-70
2024/04/21 04:55:30;;;;;;;;;;;;;;;20.35;45.31;101650.66;2217787;26;2358;-69
2024/04/21 04:56:32;;;;;;;;;;;;;;;20.35;45.31;101653.53;2220350;26;2160;-70
2024/04/21 04:57:33;;;;;;;;;;;;;;;20.35;45.16;101656.41;2220601;26;1938;-71
2024/04/21 04:58:34;;;;;;;;;;;;;;;20.35;45.27;101653.53;2211496;26;2033;-70
2024/04/21 04:59:36;;;;;;;;;;;;;;;20.35;45.36;101656.41;2220932;26;2263;-70
2024/04/21 05:00:37;;;;;;;;;;;;;;;20.37;45.70;101659.41;2215580;26;5884;-69
2024/04/21 05:01:39;;;;;;;;;;;;;;;20.36;45.15;101657.88;2212301;26;2047;-70
2024/04/21 05:02:40;;;;;;;;;;;;;;;20.37;45.49;101665.16;2219647;26;2063;-70
2024/04/21 05:03:44;;;;;;;;;;;;;;;20.37;45.11;101662.28;2221654;26;2040;-70
2024/04/21 05:04:46;;;;;;;;;;;;;;;20.38;44.79;101658.00;2215243;26;2300;-71
2024/04/21 05:05:48;;;;;;;;;;;;;;;20.38;44.90;101666.63;2218265;26;2212;-70
2024/04/21 05:06:49;;;;;;;;;;;;;;;20.38;45.34;101660.88;2221686;26;2218;-70
2024/04/21 05:07:51;;;;;;;;;;;;;;;20.39;45.27;101665.28;2217813;26;2123;-70
2024/04/21 05:08:52;;;;;;;;;;;;;;;20.40;45.33;101675.38;2215832;26;2079;-69
2024/04/21 05:09:54;;;;;;;;;;;;;;;20.40;45.15;101666.75;2217151;26;2165;-70
2024/04/21 05:10:55;;;;;;;;;;;;;;;20.40;45.23;101680.41;2219940;26;2137;-70
2024/04/21 05:11:56;;;;;;;;;;;;;;;20.40;44.73;101674.66;2216574;26;2140;-70
2024/04/21 05:12:58;;;;;;;;;;;;;;;20.40;45.08;101681.13;2220063;26;2238;-70
2024/04/21 05:13:59;;;;;;;;;;;;;;;20.40;45.34;101677.53;2219363;26;2239;-70
2024/04/21 05:15:01;;;;;;;;;;;;;;;20.40;45.25;101681.13;2217250;26;2449;-70
2024/04/21 05:16:03;;;;;;;;;;;;;;;20.40;45.21;101681.13;2220633;26;2541;-71
2024/04/21 05:17:04;;;;;;;;;;;;;;;20.40;45.18;101675.38;2219531;26;2044;-70
2024/04/21 05:18:06;;;;;;;;;;;;;;;20.41;44.85;101676.91;2215589;26;2270;-70
2024/04/21 05:19:07;;;;;;;;;;;;;;;20.41;45.37;101682.66;2219594;26;1996;-70
2024/04/21 05:20:09;;;;;;;;;;;;;;;20.42;44.95;101684.16;2219522;26;2171;-70
2024/04/21 05:21:10;;;;;;;;;;;;;;;20.41;44.85;101694.16;2219619;26;2098;-69
2024/04/21 05:22:12;;;;;;;;;;;;;;;20.42;45.33;101686.28;2221472;26;2122;-69